Alder Bend, New York
Current Conditions -  °F | °C
As of 3:53 PM on Wednesday 26 Nov 2014 (Local Time) from KPBG Reporting Station
Light Snow Light Snow  
Wind Chill: 19°   Ceiling: 2200
Heat Index: 28°   Visibility: 1mi
Dew Point: 26°   Wind: 9mph
Humidity: 92%   Direction: 360°N
Pressure: 30.15"   Gusts: NA
Location:  44.8543°N, 73.663°W
Report Text: KPBG 262053Z AUTO 36008KT 1SM -SN BR OVC022 M02/M03 A3015 RMK AO2 SLP213 P0000 60000 T10221033 56009
Loading
Personal Weather Stations






























Interactive Weather Map New forecast layout! Learn more

10-Day Weather Forecast

Advertisements
Track Severe Weather on mobile